»·PEaware :: AAY1092 KLAS-KSAN

AAY1092 :: KLAS-KSAN

FLIGHT INFORMATION

Flight Status: Arrived
Operator:
Allegiant Air
More flights by this operator :: More flights under this callsign
Pilot: Ryan B. (8502)
Aircraft: MCDONNELL-DOUGLAS MD-88
(MD88)
More flights by this aircraft type
Origin: KLAS McCarran Intl
United States
Destination: KSAN San Diego Intl-Lindbergh
United States
More flights between these airports :: More routes between these airports
Route: +BOACH7 LVELL LUCKI1
File this flight plan on PilotEdge
Remarks:
Altitude:
(Current/Filed)
32,000ft
Speed:
(Current/Filed)
400kts
Departed: 03-Jun-17 11:35 AM
Arrived: 03-Jun-17 12:21 PM
Distance/Time
Traveled:
225nm/0:46
Distance/Time
To Go:
Arrived

Flight Plot

Page will automatically refresh every two minutes.

Flight plan parsing failed; only flown route is shown


Map Options




Map Legend


Flown Route
Filed Route
Departure Airport
Arrival Airport
Navaid (VOR, NDB)
Fix

Horizontal Profiles

Position Reports

Time Latitude Longitude Heading Altitude Ground
Speed
03-Jun-17 11:22 36.080219 -115.136203 61 2062ft 0kts
03-Jun-17 11:23 36.080219 -115.136203 61 2062ft 0kts
03-Jun-17 11:24 36.080219 -115.136203 61 2062ft 0kts
03-Jun-17 11:25 36.080219 -115.136203 61 2062ft 0kts
03-Jun-17 11:26 36.080219 -115.136203 61 2062ft 0kts
03-Jun-17 11:27 36.080219 -115.136203 61 2062ft 0kts
03-Jun-17 11:28 36.080219 -115.136203 61 2062ft 0kts
03-Jun-17 11:29 36.080219 -115.136203 61 2062ft 0kts
03-Jun-17 11:30 36.080219 -115.136203 61 2062ft 0kts
03-Jun-17 11:31 36.080092 -115.136493 61 2063ft 3kts
03-Jun-17 11:32 36.079992 -115.136716 61 2063ft 0kts
03-Jun-17 11:33 36.079992 -115.136716 61 2063ft 0kts
03-Jun-17 11:34 36.079607 -115.136387 152 2063ft 4kts
03-Jun-17 11:35 36.078245 -115.132385 90 2055ft 25kts
03-Jun-17 11:36 36.077893 -115.122151 122 2035ft 29kts
03-Jun-17 11:37 36.076389 -115.131484 269 2054ft 98kts
03-Jun-17 11:38 36.076550 -115.182150 270 3125ft 160kts
03-Jun-17 11:39 36.076252 -115.241033 268 4622ft 182kts
03-Jun-17 11:40 36.036404 -115.274859 193 5929ft 221kts
03-Jun-17 11:41 35.971649 -115.301715 196 6956ft 285kts
03-Jun-17 11:42 35.897419 -115.310718 182 9791ft 275kts
03-Jun-17 11:43 35.821406 -115.311421 173 12348ft 279kts
03-Jun-17 11:44 35.745488 -115.302330 174 14682ft 288kts
03-Jun-17 11:45 35.664649 -115.294724 181 17030ft 299kts
03-Jun-17 11:46 35.578181 -115.298589 182 18632ft 335kts
03-Jun-17 11:47 35.483505 -115.302378 182 19927ft 380kts
03-Jun-17 11:48 35.376588 -115.306558 183 22434ft 395kts
03-Jun-17 11:49 35.264852 -115.310938 183 24850ft 411kts
03-Jun-17 11:50 35.149050 -115.315470 184 27186ft 427kts
03-Jun-17 11:51 35.028760 -115.320189 184 28796ft 440kts
03-Jun-17 11:52 34.925477 -115.324244 184 29730ft 453kts
03-Jun-17 11:53 34.782123 -115.333916 192 30950ft 463kts
03-Jun-17 11:54 34.680824 -115.374484 202 31728ft 466kts
03-Jun-17 11:55 34.544736 -115.434151 202 32037ft 442kts
03-Jun-17 11:56 34.448212 -115.476276 202 32044ft 444kts
03-Jun-17 11:57 34.314412 -115.537561 209 32046ft 442kts
03-Jun-17 11:58 34.227548 -115.601452 210 32044ft 441kts
03-Jun-17 11:59 34.117372 -115.658938 202 32047ft 444kts
03-Jun-17 12:00 33.983951 -115.721624 203 31960ft 443kts
03-Jun-17 12:01 33.895504 -115.763776 204 31876ft 443kts
03-Jun-17 12:02 33.791950 -115.814568 204 30639ft 426kts
03-Jun-17 12:03 33.682998 -115.866061 203 28515ft 422kts
03-Jun-17 12:04 33.574025 -115.916895 202 26144ft 421kts
03-Jun-17 12:05 33.483322 -115.995249 238 24298ft 402kts
03-Jun-17 12:06 33.422845 -116.103110 234 22825ft 381kts
03-Jun-17 12:07 33.363871 -116.204658 234 21439ft 367kts
03-Jun-17 12:08 33.288024 -116.280497 204 19777ft 365kts
03-Jun-17 12:09 33.196552 -116.332594 205 17546ft 367kts
03-Jun-17 12:10 33.105487 -116.385746 204 15336ft 367kts
03-Jun-17 12:11 33.015426 -116.438602 206 13663ft 350kts
03-Jun-17 12:12 32.940437 -116.509674 218 12030ft 343kts
03-Jun-17 12:13 32.869684 -116.581193 218 10664ft 327kts
03-Jun-17 12:14 32.802301 -116.649067 218 9577ft 309kts
03-Jun-17 12:15 32.752752 -116.720127 241 8386ft 305kts
03-Jun-17 12:16 32.712946 -116.806784 242 6933ft 293kts
03-Jun-17 12:17 32.686074 -116.886440 250 5889ft 265kts
03-Jun-17 12:18 32.674677 -116.958980 294 5176ft 224kts
03-Jun-17 12:19 32.693333 -117.024613 285 3473ft 208kts
03-Jun-17 12:20 32.708300 -117.085743 284 2003ft 182kts
03-Jun-17 12:21 32.720553 -117.136096 284 694ft 143kts
03-Jun-17 12:22 32.731386 -117.180726 283 41ft 136kts
03-Jun-17 12:23 32.734884 -117.199463 275 16ft 5kts
03-Jun-17 12:24 32.734861 -117.202809 242 16ft 13kts
03-Jun-17 12:25 32.734545 -117.203364 232 16ft 0kts
03-Jun-17 12:28 32.734545 -117.203364 232 16ft 0kts
03-Jun-17 12:29 32.734545 -117.203364 232 16ft 0kts
03-Jun-17 12:30 32.734545 -117.203364 232 16ft 0kts
03-Jun-17 12:31 32.734545 -117.203364 232 16ft 0kts
03-Jun-17 12:32 32.734545 -117.203364 232 16ft 0kts
03-Jun-17 12:33 32.734545 -117.203364 232 16ft 0kts
03-Jun-17 12:34 32.734545 -117.203364 232 16ft 0kts
03-Jun-17 12:35 32.734545 -117.203364 232 16ft 0kts
03-Jun-17 12:36 32.734545 -117.203364 232 16ft 0kts
03-Jun-17 12:37 32.734545 -117.203364 232 16ft 0kts

Navigation Log

Ident Type
Flight plan parsing failed, navigation log unavailable